Time;durP1;ratioP1;P1;durP2;ratioP2;P2;SDS_P1;SDS_P2;PMS_P1;PMS_P2;Temp;Humidity;BMP_temperature;BMP_pressure;BME280_temperature;BME280_humidity;BME280_pressure;Samples;Min_cycle;Max_cycle;Signal;HPM_P1;HPM_P2
2021/06/01 00:01:10;;;;;;;16.70;15.30;;;14.20;99.90;;;;;;5002210;28;20466;-71
2021/06/01 00:03:37;;;;;;;15.57;14.57;;;14.10;99.90;;;;;;4997947;28;20532;-71
2021/06/01 00:06:05;;;;;;;16.27;14.80;;;14.20;99.90;;;;;;5000106;28;20881;-70
2021/06/01 00:08:31;;;;;;;16.80;15.30;;;14.10;99.90;;;;;;5003120;28;20466;-70
2021/06/01 00:10:58;;;;;;;16.47;15.10;;;14.10;99.90;;;;;;5010318;28;21217;-70
2021/06/01 00:13:24;;;;;;;18.03;15.23;;;14.10;99.90;;;;;;4997898;28;20492;-70
2021/06/01 00:15:50;;;;;;;16.50;15.33;;;14.10;99.90;;;;;;4998388;28;20549;-72
2021/06/01 00:18:17;;;;;;;18.53;14.57;;;14.20;99.90;;;;;;5001528;28;20463;-71
2021/06/01 00:20:43;;;;;;;16.43;15.23;;;14.20;99.90;;;;;;5007372;28;20618;-70
2021/06/01 00:23:11;;;;;;;18.73;14.73;;;14.20;99.90;;;;;;5011249;28;21011;-71
2021/06/01 00:25:38;;;;;;;15.20;14.20;;;14.10;99.90;;;;;;4994836;28;20498;-70
2021/06/01 00:28:05;;;;;;;16.93;15.50;;;14.10;99.90;;;;;;4999148;28;20541;-71
2021/06/01 00:30:31;;;;;;;17.50;15.80;;;14.20;99.90;;;;;;5007493;28;20615;-70
2021/06/01 00:32:58;;;;;;;14.83;13.37;;;14.20;99.90;;;;;;5002895;28;20875;-70
2021/06/01 00:35:25;;;;;;;17.40;14.50;;;14.10;99.90;;;;;;4999700;28;20548;-70
2021/06/01 00:37:51;;;;;;;15.60;14.40;;;14.10;99.90;;;;;;5000536;28;20547;-71
2021/06/01 00:40:19;;;;;;;15.20;14.20;;;14.00;99.90;;;;;;4998321;28;20852;-71
2021/06/01 00:42:45;;;;;;;16.87;15.17;;;14.00;99.90;;;;;;5002173;28;20463;-70
2021/06/01 00:45:18;;;;;;;16.73;15.50;;;14.00;99.90;;;;;;4998002;28;20870;-71
2021/06/01 00:47:45;;;;;;;23.10;15.30;;;13.90;99.90;;;;;;4996190;28;20459;-70
2021/06/01 00:50:12;;;;;;;16.10;14.73;;;13.80;99.90;;;;;;4996539;28;21197;-70
2021/06/01 00:52:39;;;;;;;16.57;15.47;;;13.70;99.90;;;;;;5002549;28;20467;-71
2021/06/01 00:55:08;;;;;;;16.57;15.50;;;13.70;99.90;;;;;;5006540;28;20489;-71
2021/06/01 00:57:36;;;;;;;16.80;14.90;;;13.60;99.90;;;;;;4998427;28;20464;-70
2021/06/01 01:00:05;;;;;;;19.10;15.20;;;13.50;99.90;;;;;;5003668;28;20556;-72
2021/06/01 01:02:32;;;;;;;16.83;15.50;;;13.50;99.90;;;;;;5003606;28;20461;-71
2021/06/01 01:05:00;;;;;;;16.57;15.00;;;13.40;99.90;;;;;;4997436;28;20547;-71
2021/06/01 01:07:38;;;;;;;16.73;15.40;;;13.40;99.90;;;;;;4998762;28;20945;-70
2021/06/01 01:10:07;;;;;;;17.70;14.53;;;13.40;99.90;;;;;;5003372;28;20469;-70
2021/06/01 01:12:42;;;;;;;16.90;15.33;;;13.30;99.90;;;;;;5003731;28;20570;-70
2021/06/01 01:15:10;;;;;;;17.53;15.83;;;13.20;99.90;;;;;;5001981;28;20493;-70
2021/06/01 01:17:43;;;;;;;15.93;14.73;;;13.20;99.90;;;;;;5003380;28;20466;-73
2021/06/01 01:20:24;;;;;;;17.27;16.17;;;13.20;99.90;;;;;;4994162;28;20462;-70
2021/06/01 01:22:54;;;;;;;17.00;15.10;;;13.20;99.90;;;;;;5003043;28;20833;-70
2021/06/01 01:25:24;;;;;;;19.83;14.87;;;13.20;99.90;;;;;;5006783;28;20460;-70
2021/06/01 01:28:08;;;;;;;23.90;15.50;;;13.20;99.90;;;;;;5005459;28;20484;-71
2021/06/01 01:30:42;;;;;;;16.07;14.57;;;13.10;99.90;;;;;;5000811;28;20874;-72
2021/06/01 01:33:24;;;;;;;19.33;16.27;;;13.10;99.90;;;;;;5004693;28;20465;-71
2021/06/01 01:35:56;;;;;;;21.07;15.43;;;13.10;99.90;;;;;;5003608;28;20567;-72
2021/06/01 01:38:23;;;;;;;18.37;15.73;;;13.20;99.90;;;;;;5000175;28;20528;-70
2021/06/01 01:40:51;;;;;;;22.47;15.57;;;13.10;99.90;;;;;;4998741;28;20457;-70
2021/06/01 01:43:20;;;;;;;17.07;15.37;;;13.10;99.90;;;;;;5002786;28;20489;-72
2021/06/01 01:45:51;;;;;;;16.10;15.20;;;13.20;99.90;;;;;;5002242;28;20857;-70
2021/06/01 01:51:14;;;;;;;16.07;14.77;;;13.20;99.90;;;;;;5003193;28;20467;-71
2021/06/01 01:53:44;;;;;;;16.93;15.40;;;13.20;99.90;;;;;;5000538;28;20465;-70
2021/06/01 01:56:10;;;;;;;16.07;14.40;;;13.10;99.90;;;;;;5002505;28;20552;-71
2021/06/01 01:58:38;;;;;;;15.67;14.50;;;13.10;99.90;;;;;;5002632;28;20461;-71
2021/06/01 02:01:04;;;;;;;16.10;14.70;;;13.10;99.90;;;;;;5006032;28;20465;-71
2021/06/01 02:03:31;;;;;;;17.83;16.00;;;13.10;99.90;;;;;;5003726;28;20457;-71
2021/06/01 02:05:59;;;;;;;16.27;14.80;;;13.10;99.90;;;;;;4998107;28;20474;-72
2021/06/01 02:08:26;;;;;;;19.80;14.70;;;13.10;99.90;;;;;;4999060;28;20462;-71
2021/06/01 02:10:54;;;;;;;16.00;13.90;;;13.10;99.90;;;;;;5003527;28;20469;-70
2021/06/01 02:13:20;;;;;;;19.23;15.43;;;13.00;99.90;;;;;;5004290;28;20465;-70
2021/06/01 02:15:46;;;;;;;15.93;14.47;;;13.00;99.90;;;;;;5001844;28;20999;-71
2021/06/01 02:18:13;;;;;;;16.97;15.30;;;13.10;99.90;;;;;;5000197;28;20532;-69
2021/06/01 02:20:40;;;;;;;17.27;15.63;;;13.10;99.90;;;;;;5003798;28;20996;-71
2021/06/01 02:26:01;;;;;;;16.50;15.20;;;13.00;99.90;;;;;;5011592;28;21007;-70
2021/06/01 02:28:30;;;;;;;16.63;15.17;;;13.00;99.90;;;;;;5002324;28;20916;-72
2021/06/01 02:31:01;;;;;;;16.27;14.67;;;12.90;99.90;;;;;;4999871;28;20470;-71
2021/06/01 02:33:31;;;;;;;16.77;15.50;;;12.90;99.90;;;;;;5002621;28;20470;-71
2021/06/01 02:36:00;;;;;;;15.13;14.00;;;12.90;99.90;;;;;;4997556;28;20485;-72
2021/06/01 02:38:29;;;;;;;16.33;14.80;;;12.80;99.90;;;;;;5002168;28;20461;-70
2021/06/01 02:40:59;;;;;;;16.00;14.70;;;12.80;99.90;;;;;;5001621;28;20459;-71
2021/06/01 02:43:25;;;;;;;17.23;14.83;;;12.90;99.90;;;;;;5002672;28;20828;-70
2021/06/01 02:45:52;;;;;;;16.20;15.10;;;12.80;99.90;;;;;;4997672;28;20684;-70
2021/06/01 02:48:22;;;;;;;14.87;13.97;;;12.70;99.90;;;;;;5000148;28;20462;-72
2021/06/01 02:50:50;;;;;;;16.73;15.40;;;12.70;99.90;;;;;;4996738;28;20462;-70
2021/06/01 02:53:17;;;;;;;16.50;15.40;;;12.70;99.90;;;;;;5003244;28;20516;-71
2021/06/01 02:55:44;;;;;;;16.60;15.33;;;12.70;99.90;;;;;;5004420;28;20502;-72
2021/06/01 02:58:14;;;;;;;16.37;15.30;;;12.60;99.90;;;;;;5001672;28;20470;-72
2021/06/01 03:00:42;;;;;;;16.37;15.00;;;12.50;99.90;;;;;;4998813;28;20465;-70
2021/06/01 03:03:11;;;;;;;16.77;15.17;;;12.50;99.90;;;;;;5007019;28;20462;-70
2021/06/01 03:05:39;;;;;;;17.53;15.70;;;12.50;99.90;;;;;;5002820;28;20852;-71
2021/06/01 03:08:25;;;;;;;16.10;15.00;;;12.40;99.90;;;;;;5003490;28;20457;-73
2021/06/01 03:10:52;;;;;;;15.07;14.27;;;12.50;99.90;;;;;;5002729;28;20520;-73
2021/06/01 03:13:20;;;;;;;17.57;16.17;;;12.50;99.90;;;;;;4998307;28;20816;-70
2021/06/01 03:15:47;;;;;;;18.60;15.33;;;12.50;99.90;;;;;;5001285;28;20503;-71
2021/06/01 03:18:13;;;;;;;20.67;15.17;;;12.50;99.90;;;;;;5001133;28;20454;-70
2021/06/01 03:20:40;;;;;;;16.73;15.37;;;12.50;99.90;;;;;;4993428;28;20463;-70
2021/06/01 03:23:07;;;;;;;17.17;15.33;;;12.40;99.90;;;;;;5002652;28;20473;-70
2021/06/01 03:25:33;;;;;;;16.37;14.97;;;12.40;99.90;;;;;;5000256;28;20465;-71
2021/06/01 03:28:00;;;;;;;16.20;15.10;;;12.40;99.90;;;;;;5006559;28;20462;-70
2021/06/01 03:30:28;;;;;;;15.40;14.50;;;12.40;99.90;;;;;;5004438;28;20496;-72
2021/06/01 03:32:56;;;;;;;16.37;15.00;;;12.40;99.90;;;;;;4999353;28;20508;-70
2021/06/01 03:35:23;;;;;;;16.33;14.77;;;12.50;99.90;;;;;;4995858;28;20490;-70
2021/06/01 03:37:50;;;;;;;16.70;15.30;;;12.40;99.90;;;;;;5000842;28;20479;-69
2021/06/01 03:40:17;;;;;;;16.80;15.50;;;12.20;99.90;;;;;;5001116;28;20473;-73
2021/06/01 03:42:44;;;;;;;16.00;14.60;;;12.10;99.90;;;;;;5000943;28;20461;-71
2021/06/01 03:45:12;;;;;;;16.70;15.63;;;11.90;99.90;;;;;;4996215;28;20464;-71
2021/06/01 03:47:41;;;;;;;17.30;15.97;;;11.80;99.90;;;;;;5000721;28;21039;-70
2021/06/01 03:50:08;;;;;;;17.67;16.10;;;11.70;99.90;;;;;;4997533;28;20509;-70
2021/06/01 03:52:35;;;;;;;21.40;16.33;;;11.60;99.90;;;;;;4993097;28;20450;-73
2021/06/01 03:55:02;;;;;;;16.50;15.40;;;11.50;99.90;;;;;;5002326;28;20764;-71
2021/06/01 03:57:29;;;;;;;17.10;15.83;;;11.40;99.90;;;;;;5011326;28;20476;-71
2021/06/01 03:59:56;;;;;;;17.83;16.17;;;11.40;99.90;;;;;;5006020;28;20466;-70
2021/06/01 04:02:23;;;;;;;18.20;16.57;;;11.30;99.90;;;;;;4997328;28;20481;-71
2021/06/01 04:04:51;;;;;;;17.77;16.13;;;11.30;99.90;;;;;;4995874;28;20725;-70
2021/06/01 04:07:17;;;;;;;18.60;17.40;;;11.20;99.90;;;;;;5001365;28;20508;-70
2021/06/01 04:09:45;;;;;;;19.37;17.60;;;11.10;99.90;;;;;;5002518;28;20827;-70
2021/06/01 04:12:11;;;;;;;23.40;16.97;;;11.10;99.90;;;;;;5004014;28;20469;-71
2021/06/01 04:14:38;;;;;;;18.03;16.73;;;11.10;99.90;;;;;;4999460;28;20504;-71
2021/06/01 04:17:05;;;;;;;17.80;16.40;;;11.10;99.90;;;;;;5001620;28;20461;-73
2021/06/01 04:19:32;;;;;;;17.53;16.00;;;11.20;99.90;;;;;;4999208;28;20996;-73
2021/06/01 04:22:00;;;;;;;18.73;17.23;;;11.20;99.90;;;;;;4998188;28;20482;-73
2021/06/01 04:24:28;;;;;;;18.10;16.50;;;11.30;99.90;;;;;;4998498;28;20465;-70
2021/06/01 04:26:55;;;;;;;19.23;15.80;;;11.50;99.90;;;;;;4997533;28;20871;-72
2021/06/01 04:29:21;;;;;;;18.40;16.60;;;11.60;99.90;;;;;;5001469;28;21018;-71
2021/06/01 04:31:48;;;;;;;20.80;16.80;;;11.70;99.90;;;;;;5001468;28;21007;-72
2021/06/01 04:34:15;;;;;;;20.20;18.03;;;11.80;99.90;;;;;;5006220;28;20545;-71
2021/06/01 04:36:41;;;;;;;20.70;16.57;;;11.90;99.90;;;;;;5005330;28;20551;-71
2021/06/01 04:39:09;;;;;;;20.40;16.37;;;12.00;99.90;;;;;;5004356;28;20465;-72
2021/06/01 04:41:36;;;;;;;23.40;16.77;;;12.10;99.90;;;;;;5001902;28;20498;-70
2021/06/01 04:44:03;;;;;;;20.23;16.93;;;12.30;99.90;;;;;;5003483;28;20477;-70
2021/06/01 04:46:29;;;;;;;28.07;17.77;;;12.50;99.90;;;;;;4998839;28;20953;-71
2021/06/01 04:48:56;;;;;;;19.90;16.40;;;12.80;99.90;;;;;;5004030;28;20472;-71
2021/06/01 04:51:23;;;;;;;20.10;16.50;;;12.90;99.90;;;;;;5004687;28;20465;-70
2021/06/01 04:53:51;;;;;;;21.40;16.20;;;13.10;99.90;;;;;;5002495;28;20474;-71
2021/06/01 04:56:18;;;;;;;19.60;15.93;;;13.20;99.90;;;;;;5001027;28;20524;-70
2021/06/01 04:58:45;;;;;;;20.20;16.73;;;13.40;99.90;;;;;;5001015;28;20512;-71
2021/06/01 05:01:11;;;;;;;18.03;16.40;;;13.50;99.90;;;;;;5008983;28;20498;-70
2021/06/01 05:03:38;;;;;;;19.83;16.50;;;13.70;99.90;;;;;;5015850;28;20469;-70
2021/06/01 05:06:05;;;;;;;19.07;17.23;;;13.90;99.90;;;;;;5004555;28;20831;-71
2021/06/01 05:08:31;;;;;;;17.67;16.17;;;14.00;99.90;;;;;;5005298;28;20828;-70
2021/06/01 05:10:58;;;;;;;18.33;16.13;;;14.20;99.90;;;;;;4997949;28;20492;-70
2021/06/01 05:13:26;;;;;;;19.43;15.73;;;14.30;99.90;;;;;;4999831;28;20957;-73
2021/06/01 05:15:52;;;;;;;17.50;15.83;;;14.50;99.90;;;;;;5002781;28;20481;-70
2021/06/01 05:18:19;;;;;;;16.90;15.40;;;14.50;99.90;;;;;;5002434;28;20476;-71
2021/06/01 05:20:46;;;;;;;17.60;16.20;;;14.70;99.90;;;;;;5004622;28;20461;-71
2021/06/01 05:23:13;;;;;;;22.83;15.80;;;14.90;99.90;;;;;;5004661;28;20465;-70
2021/06/01 05:25:41;;;;;;;17.70;15.87;;;15.10;99.90;;;;;;5016449;28;20460;-70
2021/06/01 05:28:07;;;;;;;17.87;16.43;;;15.10;99.90;;;;;;5009377;28;20545;-71
2021/06/01 05:30:38;;;;;;;17.13;15.63;;;15.20;99.90;;;;;;5011249;28;20480;-72
2021/06/01 05:33:14;;;;;;;18.60;16.93;;;15.30;99.90;;;;;;5002929;28;21072;-71
2021/06/01 05:35:45;;;;;;;17.97;16.33;;;15.40;99.90;;;;;;5008170;28;20485;-71
2021/06/01 05:38:11;;;;;;;18.33;16.63;;;15.50;99.90;;;;;;5009138;28;20475;-72
2021/06/01 05:40:38;;;;;;;17.93;16.17;;;15.50;99.90;;;;;;5002702;28;20462;-71
2021/06/01 05:43:05;;;;;;;18.33;16.30;;;15.60;99.90;;;;;;5008136;28;20462;-70
2021/06/01 05:45:32;;;;;;;17.40;15.67;;;15.80;99.90;;;;;;5016564;28;20467;-71
2021/06/01 05:48:00;;;;;;;17.37;15.57;;;15.90;99.90;;;;;;5010227;28;22416;-71
2021/06/01 05:50:27;;;;;;;16.87;15.67;;;16.00;99.90;;;;;;5007551;28;20990;-72
2021/06/01 05:52:53;;;;;;;17.10;15.83;;;16.20;99.90;;;;;;5009805;28;20469;-72
2021/06/01 05:55:20;;;;;;;18.63;15.73;;;16.30;99.90;;;;;;5008579;28;20484;-70
2021/06/01 05:57:48;;;;;;;17.03;15.63;;;16.30;99.90;;;;;;5001994;28;20467;-71
2021/06/01 06:00:16;;;;;;;18.87;15.60;;;16.40;99.90;;;;;;5005798;28;21063;-72
2021/06/01 06:02:42;;;;;;;27.43;16.70;;;16.60;99.90;;;;;;5003973;28;20829;-71
2021/06/01 06:05:11;;;;;;;20.93;15.67;;;16.70;99.90;;;;;;5006783;28;21136;-71
2021/06/01 06:07:38;;;;;;;17.73;16.27;;;16.80;99.90;;;;;;5001315;28;20458;-71
2021/06/01 06:10:05;;;;;;;17.37;15.77;;;16.80;99.90;;;;;;5000894;28;20923;-70
2021/06/01 06:12:31;;;;;;;21.73;15.87;;;17.00;99.90;;;;;;5006936;28;20467;-72
2021/06/01 06:14:57;;;;;;;17.53;16.13;;;17.10;99.90;;;;;;5008849;28;20516;-70
2021/06/01 06:17:34;;;;;;;18.43;15.90;;;17.20;99.90;;;;;;5011410;28;20476;-73
2021/06/01 06:20:02;;;;;;;16.50;15.03;;;17.30;99.90;;;;;;5008560;28;20468;-70
2021/06/01 06:22:30;;;;;;;17.20;14.90;;;17.40;99.90;;;;;;5011060;28;20461;-70
2021/06/01 06:24:57;;;;;;;16.30;15.10;;;17.60;99.90;;;;;;5009026;28;20461;-70
2021/06/01 06:27:23;;;;;;;18.93;16.10;;;17.50;99.90;;;;;;5000240;28;20544;-70
2021/06/01 06:29:50;;;;;;;16.10;14.93;;;17.80;99.90;;;;;;5002136;28;21400;-71
2021/06/01 06:32:16;;;;;;;19.63;15.80;;;17.80;99.90;;;;;;4990620;28;20556;-71
2021/06/01 06:34:44;;;;;;;17.07;15.67;;;17.90;99.90;;;;;;4980320;28;20481;-71
2021/06/01 06:37:10;;;;;;;17.17;15.90;;;17.90;99.90;;;;;;4979015;28;20467;-70
2021/06/01 06:39:39;;;;;;;16.73;15.53;;;18.10;99.90;;;;;;4983541;28;20461;-70
2021/06/01 06:42:07;;;;;;;17.93;16.17;;;18.20;99.90;;;;;;4981285;28;21127;-71
2021/06/01 06:44:35;;;;;;;16.67;15.53;;;18.50;99.90;;;;;;4981418;28;20646;-69
2021/06/01 06:47:18;;;;;;;16.90;15.70;;;18.40;99.90;;;;;;4984437;28;20491;-70
2021/06/01 06:49:45;;;;;;;18.10;16.33;;;18.40;99.90;;;;;;4987300;28;20467;-71
2021/06/01 06:52:12;;;;;;;17.73;16.00;;;18.50;99.90;;;;;;4984827;28;20468;-70
2021/06/01 06:54:40;;;;;;;17.03;15.50;;;18.60;99.90;;;;;;4992933;28;20504;-71
2021/06/01 06:57:08;;;;;;;17.10;15.30;;;18.80;99.90;;;;;;4986167;28;20491;-70
2021/06/01 06:59:34;;;;;;;18.47;16.63;;;18.90;99.90;;;;;;4977199;28;20576;-70
2021/06/01 07:02:01;;;;;;;16.60;15.40;;;19.20;99.90;;;;;;4985464;28;20549;-70
2021/06/01 07:04:28;;;;;;;17.60;16.07;;;19.20;99.70;;;;;;4977164;28;20473;-70
2021/06/01 07:06:54;;;;;;;18.87;15.77;;;19.20;99.90;;;;;;4982658;28;20524;-70
2021/06/01 07:09:21;;;;;;;17.03;15.50;;;19.40;99.90;;;;;;4984106;28;20478;-71
2021/06/01 07:11:49;;;;;;;17.77;15.80;;;19.60;99.90;;;;;;4983357;28;20471;-71
2021/06/01 07:14:31;;;;;;;16.50;15.47;;;19.80;99.90;;;;;;4972194;28;20506;-71
2021/06/01 07:16:58;;;;;;;18.43;16.60;;;19.90;99.90;;;;;;4984009;28;20496;-71
2021/06/01 07:19:24;;;;;;;17.60;15.93;;;20.10;99.60;;;;;;4981279;28;20489;-70
2021/06/01 07:21:51;;;;;;;18.40;16.53;;;20.20;98.80;;;;;;4979132;28;20471;-70
2021/06/01 07:24:17;;;;;;;17.57;16.27;;;20.30;98.70;;;;;;4985123;28;20478;-70
2021/06/01 07:26:44;;;;;;;18.50;17.07;;;20.50;98.20;;;;;;4977405;28;20472;-70
2021/06/01 07:29:12;;;;;;;17.87;16.10;;;20.60;98.20;;;;;;4982183;28;20494;-71
2021/06/01 07:31:38;;;;;;;18.53;17.13;;;20.70;97.60;;;;;;4994989;28;20469;-71
2021/06/01 07:34:05;;;;;;;18.83;16.93;;;20.80;97.60;;;;;;4996987;28;20527;-71
2021/06/01 07:36:31;;;;;;;16.70;15.43;;;21.00;97.70;;;;;;4993260;28;20605;-70
2021/06/01 07:38:57;;;;;;;17.27;16.00;;;21.10;97.50;;;;;;4999577;28;20467;-70
2021/06/01 07:41:24;;;;;;;16.47;15.30;;;21.20;96.80;;;;;;4999518;28;20461;-71
2021/06/01 07:43:52;;;;;;;16.73;15.53;;;21.10;96.90;;;;;;4998070;28;20477;-71
2021/06/01 07:46:20;;;;;;;17.73;16.30;;;21.30;96.50;;;;;;4996966;28;20593;-70
2021/06/01 07:48:46;;;;;;;16.67;15.33;;;21.00;96.10;;;;;;4997343;28;20466;-71
2021/06/01 07:51:13;;;;;;;17.40;16.20;;;21.10;96.20;;;;;;5001152;28;20484;-70
2021/06/01 07:53:40;;;;;;;17.03;15.40;;;21.30;95.80;;;;;;4996708;28;20462;-71
2021/06/01 07:56:08;;;;;;;19.93;16.70;;;21.50;95.90;;;;;;4997919;28;20502;-71
2021/06/01 07:58:35;;;;;;;17.37;15.90;;;21.60;96.00;;;;;;4998540;28;20458;-71
2021/06/01 08:01:01;;;;;;;17.50;16.10;;;21.60;95.40;;;;;;4998474;28;21193;-70
2021/06/01 08:03:29;;;;;;;17.33;16.20;;;21.60;95.10;;;;;;5009548;28;20466;-71
2021/06/01 08:05:55;;;;;;;16.17;15.07;;;22.00;95.40;;;;;;5005550;28;20469;-70
2021/06/01 08:08:22;;;;;;;17.03;15.83;;;22.80;95.20;;;;;;5006248;28;20983;-71
2021/06/01 08:10:50;;;;;;;16.57;15.20;;;23.60;93.40;;;;;;5000685;28;20468;-71
2021/06/01 08:13:16;;;;;;;16.17;15.07;;;24.40;91.20;;;;;;5005673;28;20844;-71
2021/06/01 08:15:48;;;;;;;16.77;15.10;;;24.80;90.50;;;;;;4997521;28;20477;-71
2021/06/01 08:18:14;;;;;;;17.07;15.40;;;25.30;89.10;;;;;;4997995;28;20581;-71
2021/06/01 08:20:54;;;;;;;17.40;15.70;;;25.70;86.20;;;;;;4998578;28;20458;-71
2021/06/01 08:23:20;;;;;;;16.47;15.00;;;26.50;83.60;;;;;;4990382;28;21097;-71
2021/06/01 08:25:47;;;;;;;16.67;15.20;;;27.00;79.60;;;;;;5001361;28;20735;-71
2021/06/01 08:28:13;;;;;;;16.77;15.30;;;27.20;77.10;;;;;;4997654;28;20500;-71
2021/06/01 08:30:40;;;;;;;16.37;14.93;;;27.80;74.50;;;;;;4996899;28;21040;-71
2021/06/01 08:33:06;;;;;;;16.67;15.20;;;28.00;71.10;;;;;;4996459;28;20514;-71
2021/06/01 08:35:33;;;;;;;15.90;14.80;;;27.80;69.40;;;;;;4994211;28;20493;-71
2021/06/01 08:38:00;;;;;;;16.50;15.30;;;27.50;68.70;;;;;;4996360;28;20477;-71
2021/06/01 08:40:27;;;;;;;17.33;16.23;;;27.90;67.20;;;;;;4997687;28;20476;-71
2021/06/01 08:42:53;;;;;;;16.77;15.70;;;28.30;67.40;;;;;;4994318;28;20465;-72
2021/06/01 08:45:20;;;;;;;15.73;14.80;;;27.80;66.70;;;;;;4995636;28;20557;-71
2021/06/01 08:47:47;;;;;;;15.93;14.97;;;27.80;64.60;;;;;;4988139;28;20478;-71
2021/06/01 08:50:15;;;;;;;15.40;14.40;;;28.20;65.00;;;;;;4997920;28;20462;-72
2021/06/01 08:52:42;;;;;;;22.93;14.30;;;28.50;62.70;;;;;;4996747;28;20465;-71
2021/06/01 08:55:12;;;;;;;16.67;15.57;;;27.90;63.40;;;;;;4992978;28;21048;-71
2021/06/01 08:57:39;;;;;;;15.60;14.63;;;28.50;63.00;;;;;;4988234;28;20473;-72
2021/06/01 09:00:09;;;;;;;16.97;15.87;;;28.50;59.50;;;;;;4997402;28;20557;-72
2021/06/01 09:02:35;;;;;;;16.07;15.07;;;28.60;59.20;;;;;;4996419;28;20573;-71
2021/06/01 09:05:05;;;;;;;15.73;14.67;;;28.70;59.40;;;;;;4996371;28;20461;-71
2021/06/01 09:07:37;;;;;;;17.03;15.77;;;29.20;55.90;;;;;;4994464;28;20502;-71
2021/06/01 09:10:24;;;;;;;15.00;14.10;;;29.80;56.30;;;;;;4994727;28;20888;-71
2021/06/01 09:13:35;;;;;;;16.00;15.10;;;29.60;54.90;;;;;;4996335;28;20465;-71
2021/06/01 09:21:34;;;;;;;14.87;14.13;;;30.20;54.50;;;;;;5000433;28;20875;-71
2021/06/01 09:24:03;;;;;;;16.33;15.30;;;30.10;49.10;;;;;;5000897;28;20548;-72
2021/06/01 09:26:59;;;;;;;15.30;14.07;;;30.90;50.70;;;;;;5002481;28;20962;-72
2021/06/01 09:29:28;;;;;;;15.97;14.87;;;30.40;47.10;;;;;;4997892;28;20598;-72
2021/06/01 09:32:12;;;;;;;15.50;14.63;;;30.40;45.40;;;;;;4995499;28;20488;-72
2021/06/01 09:34:42;;;;;;;15.10;14.10;;;30.70;46.90;;;;;;5000795;28;20522;-72
2021/06/01 09:37:22;;;;;;;16.37;15.30;;;30.50;44.60;;;;;;4994320;28;20521;-73
2021/06/01 09:40:14;;;;;;;15.03;14.10;;;30.20;44.40;;;;;;4991569;28;20470;-73
2021/06/01 09:42:42;;;;;;;15.30;14.40;;;30.40;44.20;;;;;;4999636;28;20466;-73
2021/06/01 09:45:14;;;;;;;15.30;14.50;;;30.50;43.10;;;;;;5001029;28;20470;-73
2021/06/01 09:47:42;;;;;;;16.20;14.60;;;30.70;45.20;;;;;;5000628;28;21134;-73
2021/06/01 09:50:14;;;;;;;14.97;13.90;;;30.60;43.20;;;;;;5003916;28;20476;-73
2021/06/01 09:52:49;;;;;;;14.90;14.20;;;30.80;43.60;;;;;;4998979;28;20493;-73
2021/06/01 09:55:24;;;;;;;15.90;14.67;;;31.30;43.40;;;;;;4998654;28;20485;-73
2021/06/01 09:57:51;;;;;;;15.80;14.73;;;31.30;42.80;;;;;;5000208;28;20473;-73
2021/06/01 10:00:21;;;;;;;14.50;13.73;;;31.30;42.60;;;;;;5000254;28;20469;-73
2021/06/01 10:02:50;;;;;;;15.63;14.43;;;31.30;43.20;;;;;;4996327;28;20461;-73
2021/06/01 10:05:20;;;;;;;14.90;14.00;;;30.90;42.90;;;;;;4999992;28;20458;-73
2021/06/01 10:07:47;;;;;;;14.33;13.50;;;31.50;43.60;;;;;;4994508;28;20461;-73
2021/06/01 10:10:22;;;;;;;14.43;13.73;;;31.50;42.60;;;;;;4996186;28;20468;-73
2021/06/01 10:12:50;;;;;;;14.23;13.20;;;31.30;41.40;;;;;;4999105;28;20465;-73
2021/06/01 10:15:20;;;;;;;14.37;13.40;;;31.00;41.20;;;;;;4993647;28;20545;-73
2021/06/01 10:17:48;;;;;;;15.20;14.30;;;30.60;41.60;;;;;;4998061;28;20888;-73
2021/06/01 10:20:14;;;;;;;15.27;14.20;;;31.70;42.70;;;;;;5002607;28;20879;-73
2021/06/01 10:22:41;;;;;;;15.10;14.00;;;32.00;42.20;;;;;;4998811;28;20465;-73
2021/06/01 10:25:09;;;;;;;16.60;15.03;;;31.70;40.30;;;;;;5001543;28;20508;-73
2021/06/01 10:27:36;;;;;;;15.17;13.77;;;31.70;40.70;;;;;;5004377;28;20473;-73
2021/06/01 10:30:06;;;;;;;14.10;13.40;;;32.00;41.60;;;;;;5012477;28;20487;-73
2021/06/01 10:32:37;;;;;;;14.63;13.70;;;32.40;40.50;;;;;;4996444;28;20474;-73
2021/06/01 10:35:08;;;;;;;14.63;13.77;;;31.80;39.70;;;;;;5003820;28;20488;-73
2021/06/01 10:43:35;;;;;;;15.30;14.50;;;32.40;39.10;;;;;;5003496;28;20504;-73
2021/06/01 10:52:08;;;;;;;15.00;14.20;;;32.10;40.00;;;;;;4985521;28;20981;-73
2021/06/01 10:54:54;;;;;;;15.33;14.53;;;32.50;38.50;;;;;;5001625;28;20500;-73
2021/06/01 10:57:20;;;;;;;14.47;13.77;;;33.30;40.70;;;;;;5004432;28;20508;-73
2021/06/01 10:59:59;;;;;;;14.57;13.87;;;33.60;38.20;;;;;;4996590;28;20539;-73
2021/06/01 11:02:26;;;;;;;14.47;13.80;;;33.00;38.50;;;;;;4996862;28;20473;-73
2021/06/01 11:05:03;;;;;;;15.13;14.20;;;32.40;38.40;;;;;;4996950;28;20523;-73
2021/06/01 11:07:59;;;;;;;15.50;14.50;;;32.40;38.70;;;;;;5002406;28;20547;-73
2021/06/01 11:10:40;;;;;;;15.60;14.53;;;33.10;39.60;;;;;;4998722;28;20500;-73
2021/06/01 11:13:07;;;;;;;15.40;14.40;;;33.60;38.10;;;;;;4999337;28;21360;-73
2021/06/01 11:15:38;;;;;;;16.10;14.57;;;33.60;37.90;;;;;;5000782;28;20505;-73
2021/06/01 11:18:28;;;;;;;16.73;15.70;;;33.00;38.90;;;;;;4996136;28;20896;-73
2021/06/01 11:21:32;;;;;;;15.83;14.93;;;34.20;37.10;;;;;;4994121;28;20545;-70
2021/06/01 11:33:01;;;;;;;15.33;14.33;;;33.70;36.20;;;;;;5006930;28;20467;-72
2021/06/01 11:35:30;;;;;;;15.10;14.03;;;33.70;36.40;;;;;;4995716;28;20822;-72
2021/06/01 11:38:11;;;;;;;14.97;14.07;;;34.40;35.20;;;;;;4994015;28;20855;-72
2021/06/01 11:40:56;;;;;;;15.80;14.23;;;34.00;35.00;;;;;;4993301;28;20465;-73
2021/06/01 11:43:22;;;;;;;14.53;13.87;;;34.10;35.90;;;;;;5006550;28;20507;-71
2021/06/01 11:45:53;;;;;;;15.27;14.57;;;34.10;35.40;;;;;;5006923;28;20485;-71
2021/06/01 11:50:58;;;;;;;15.00;14.10;;;34.00;33.50;;;;;;5010314;28;20465;-71
2021/06/01 11:51:19;;;;;;;15.20;13.83;;;33.90;35.20;;;;;;4998687;28;20655;-72
2021/06/01 11:53:54;;;;;;;15.20;13.77;;;34.30;36.30;;;;;;5008326;28;20727;-71
2021/06/01 11:56:55;;;;;;;14.80;13.50;;;33.90;35.60;;;;;;4986582;28;20525;-72
2021/06/01 12:02:27;;;;;;;15.07;14.37;;;33.90;36.00;;;;;;4996076;28;20809;-72
2021/06/01 12:05:01;;;;;;;14.47;13.60;;;34.40;34.60;;;;;;5000009;28;21406;-72
2021/06/01 12:13:13;;;;;;;14.40;13.30;;;33.50;34.10;;;;;;4985764;28;20466;-72
2021/06/01 12:18:31;;;;;;;14.20;13.40;;;32.50;35.30;;;;;;4994298;28;20453;-72
2021/06/01 12:20:57;;;;;;;14.13;13.37;;;33.80;35.50;;;;;;4992512;28;20838;-72
2021/06/01 12:23:33;;;;;;;14.27;13.37;;;34.30;34.90;;;;;;4992284;28;20470;-72
2021/06/01 12:26:20;;;;;;;14.47;13.77;;;34.60;34.30;;;;;;4992578;28;20466;-73
2021/06/01 12:31:52;;;;;;;15.47;14.60;;;35.40;33.90;;;;;;4995997;28;20663;-72
2021/06/01 12:34:25;;;;;;;15.00;14.23;;;35.40;33.40;;;;;;4999527;28;20663;-72
2021/06/01 12:37:14;;;;;;;15.47;14.57;;;36.00;34.40;;;;;;5000319;28;20497;-71
2021/06/01 12:42:41;;;;;;;14.83;13.80;;;35.40;34.30;;;;;;5005510;28;20516;-73
2021/06/01 13:06:06;;;;;;;14.40;13.80;;;34.20;34.10;;;;;;5051278;28;20462;-73
2021/06/01 13:14:18;;;;;;;15.40;14.43;;;35.20;33.40;;;;;;5051127;28;20968;-73
2021/06/01 13:19:32;;;;;;;15.47;14.37;;;35.90;31.50;;;;;;5057847;28;20485;-73
2021/06/01 13:22:10;;;;;;;15.50;14.50;;;35.20;32.50;;;;;;5055721;28;20468;-73
2021/06/01 13:30:32;;;;;;;15.03;13.93;;;36.10;31.90;;;;;;5053698;28;20839;-73
2021/06/01 13:38:39;;;;;;;14.20;13.60;;;36.10;31.10;;;;;;5043858;28;20866;-71
2021/06/01 13:46:45;;;;;;;16.33;15.07;;;36.30;30.50;;;;;;5049582;28;20905;-72
2021/06/01 13:49:15;;;;;;;14.67;13.83;;;36.80;30.50;;;;;;5052104;28;20462;-72
2021/06/01 13:52:06;;;;;;;15.20;14.40;;;35.70;31.00;;;;;;5052630;28;20475;-72
2021/06/01 13:57:25;;;;;;;14.67;13.77;;;35.30;31.70;;;;;;5050614;28;20478;-72
2021/06/01 13:59:58;;;;;;;15.23;13.70;;;36.10;32.00;;;;;;5042517;28;20530;-72
2021/06/01 14:22:00;;;;;;;15.30;14.40;;;36.90;28.30;;;;;;5034178;28;20892;-73
2021/06/01 14:30:13;;;;;;;15.50;14.80;;;37.20;29.90;;;;;;5049764;28;20465;-73
2021/06/01 14:35:55;;;;;;;15.27;14.47;;;37.80;28.40;;;;;;5040887;28;20488;-72
2021/06/01 15:23:23;;;;;;;15.20;14.40;;;35.30;29.10;;;;;;5046634;28;20472;-72
2021/06/01 15:31:34;;;;;;;15.30;14.60;;;35.70;28.80;;;;;;5044897;28;20456;-72
2021/06/01 15:47:51;;;;;;;15.03;14.03;;;34.80;28.90;;;;;;5038032;28;20514;-72
2021/06/01 16:13:14;;;;;;;14.47;13.67;;;34.40;28.80;;;;;;5044334;28;20546;-73
2021/06/01 16:21:41;;;;;;;15.30;14.40;;;34.70;28.70;;;;;;5036488;28;20509;-72